Time;durP1;ratioP1;P1;durP2;ratioP2;P2;SDS_P1;SDS_P2;PMS_P1;PMS_P2;Temp;Humidity;BMP_temperature;BMP_pressure;BME280_temperature;BME280_humidity;BME280_pressure;Samples;Min_cycle;Max_cycle;Signal;HPM_P1;HPM_P2
2021/03/18 00:04:54;;;;;;;4.13;3.77;;;5.70;38.30;;;;;;10422490;28;20237;-74
2021/03/18 00:09:57;;;;;;;5.23;3.43;;;5.70;38.30;;;;;;10421217;28;20216;-74
2021/03/18 00:14:59;;;;;;;4.67;3.37;;;5.60;38.20;;;;;;10429301;28;20217;-74
2021/03/18 00:20:04;;;;;;;4.30;3.70;;;5.50;38.30;;;;;;10425639;28;20646;-73
2021/03/18 00:25:09;;;;;;;4.20;3.80;;;5.50;38.60;;;;;;10432576;28;20739;-73
2021/03/18 00:30:14;;;;;;;5.53;3.60;;;5.50;38.80;;;;;;10446067;22;20229;-72
2021/03/18 00:35:17;;;;;;;4.20;3.73;;;5.50;38.90;;;;;;10389932;28;20229;-72
2021/03/18 00:40:26;;;;;;;3.73;3.13;;;5.60;38.90;;;;;;10375131;28;20222;-71
2021/03/18 00:45:34;;;;;;;3.60;3.30;;;5.50;38.90;;;;;;10378620;28;20234;-72
2021/03/18 00:50:38;;;;;;;3.57;3.27;;;5.60;39.00;;;;;;10433230;22;20229;-72
2021/03/18 00:55:43;;;;;;;3.37;3.07;;;5.60;39.00;;;;;;10429548;28;20217;-72
2021/03/18 01:00:47;;;;;;;3.83;3.40;;;5.60;39.00;;;;;;10432480;28;20245;-72
2021/03/18 01:05:52;;;;;;;4.90;4.30;;;5.60;38.90;;;;;;10441898;28;20730;-72
2021/03/18 01:10:57;;;;;;;4.30;3.80;;;5.60;38.80;;;;;;10443350;28;20700;-72
2021/03/18 01:16:01;;;;;;;3.70;3.40;;;5.60;38.90;;;;;;10438916;28;20593;-72
2021/03/18 01:21:04;;;;;;;3.97;3.50;;;5.60;39.00;;;;;;10448922;28;20221;-72
2021/03/18 01:26:08;;;;;;;5.37;4.70;;;5.60;39.00;;;;;;10451297;28;20224;-72
2021/03/18 01:31:12;;;;;;;5.43;4.60;;;5.60;38.90;;;;;;10439919;28;20632;-72
2021/03/18 01:36:14;;;;;;;5.90;4.97;;;5.60;38.70;;;;;;10447565;28;20213;-72
2021/03/18 01:41:19;;;;;;;6.63;5.93;;;5.60;38.80;;;;;;10442198;28;20744;-73
2021/03/18 01:46:22;;;;;;;7.03;5.77;;;5.70;38.80;;;;;;10444917;28;20244;-72
2021/03/18 01:51:24;;;;;;;6.57;5.63;;;5.80;38.90;;;;;;10446739;28;20234;-72
2021/03/18 01:56:27;;;;;;;6.20;5.60;;;5.60;38.60;;;;;;10439803;28;20578;-72
2021/03/18 02:01:29;;;;;;;6.73;6.03;;;5.60;38.40;;;;;;10442117;28;20236;-72
2021/03/18 02:06:32;;;;;;;6.73;4.97;;;5.70;38.50;;;;;;10444534;28;20221;-70
2021/03/18 02:11:35;;;;;;;6.37;5.77;;;5.70;38.70;;;;;;10441183;28;20221;-70
2021/03/18 02:16:44;;;;;;;6.20;5.33;;;5.50;38.40;;;;;;10444240;28;20235;-70
2021/03/18 02:22:36;;;;;;;6.37;5.77;;;5.50;38.40;;;;;;10445906;28;20229;-70
2021/03/18 02:28:24;;;;;;;7.43;6.07;;;5.50;38.70;;;;;;10440516;28;20228;-70
2021/03/18 02:34:18;;;;;;;7.90;6.03;;;5.40;38.70;;;;;;10440136;28;20244;-70
2021/03/18 02:39:26;;;;;;;8.50;6.50;;;5.40;38.70;;;;;;10360543;28;20229;-71
2021/03/18 02:44:31;;;;;;;7.20;6.40;;;5.40;38.60;;;;;;10444009;28;20236;-70
2021/03/18 02:49:36;;;;;;;8.20;6.57;;;5.30;38.60;;;;;;10442643;28;20311;-71
2021/03/18 02:54:40;;;;;;;7.23;6.53;;;5.30;38.60;;;;;;10442220;28;20718;-70
2021/03/18 02:59:45;;;;;;;6.30;5.40;;;5.30;38.70;;;;;;10440501;28;20221;-70
2021/03/18 03:04:48;;;;;;;7.97;6.40;;;5.30;38.70;;;;;;10439347;28;20225;-70
2021/03/18 03:09:53;;;;;;;8.30;6.83;;;5.50;39.00;;;;;;10442511;28;20228;-70
2021/03/18 03:14:57;;;;;;;7.13;5.87;;;5.30;38.80;;;;;;10441546;28;20216;-70
2021/03/18 03:20:01;;;;;;;6.77;6.07;;;5.30;38.80;;;;;;10443255;28;20732;-71
2021/03/18 03:25:06;;;;;;;7.00;6.30;;;5.30;38.90;;;;;;10438982;28;20253;-70
2021/03/18 03:30:10;;;;;;;7.33;6.53;;;5.30;39.00;;;;;;10439052;28;20231;-70
2021/03/18 03:35:14;;;;;;;7.93;7.13;;;5.30;38.90;;;;;;10438719;28;20228;-70
2021/03/18 03:40:19;;;;;;;7.90;7.00;;;5.30;38.90;;;;;;10435966;28;20233;-70
2021/03/18 03:45:21;;;;;;;7.83;7.03;;;5.30;39.00;;;;;;10441304;28;20227;-70
2021/03/18 03:50:26;;;;;;;7.80;7.00;;;5.30;38.90;;;;;;10439572;28;20239;-70
2021/03/18 03:55:38;;;;;;;9.37;7.13;;;5.30;39.00;;;;;;10444185;28;20237;-70
2021/03/18 04:00:41;;;;;;;9.47;7.97;;;5.30;39.10;;;;;;10442895;28;20673;-70
2021/03/18 04:05:46;;;;;;;8.43;7.47;;;5.30;38.90;;;;;;10444021;28;20221;-70
2021/03/18 04:10:50;;;;;;;8.37;7.47;;;5.30;38.90;;;;;;10440979;28;20221;-70
2021/03/18 04:15:53;;;;;;;7.83;7.03;;;5.40;39.10;;;;;;10440847;28;20223;-70
2021/03/18 04:20:56;;;;;;;8.87;7.97;;;5.20;38.90;;;;;;10437871;28;20225;-70
2021/03/18 04:26:01;;;;;;;9.87;7.93;;;5.40;39.20;;;;;;10442585;28;20720;-72
2021/03/18 04:31:06;;;;;;;9.47;8.47;;;5.20;39.20;;;;;;10438268;28;20256;-72
2021/03/18 04:36:09;;;;;;;9.77;8.73;;;5.20;39.40;;;;;;10435020;28;20655;-72
2021/03/18 04:41:13;;;;;;;10.07;9.07;;;5.20;39.40;;;;;;10441558;28;20589;-72
2021/03/18 04:46:15;;;;;;;9.97;8.87;;;5.20;39.40;;;;;;10452052;28;20597;-72
2021/03/18 04:51:17;;;;;;;9.80;8.80;;;5.30;39.40;;;;;;10450439;28;20587;-72
2021/03/18 04:56:22;;;;;;;9.80;8.80;;;5.20;39.40;;;;;;10457049;28;20226;-72
2021/03/18 05:01:27;;;;;;;11.60;10.07;;;5.40;39.80;;;;;;10445048;28;20603;-72
2021/03/18 05:06:30;;;;;;;11.00;9.90;;;5.40;39.80;;;;;;10451300;28;20235;-70
2021/03/18 05:11:35;;;;;;;11.83;10.33;;;5.30;39.60;;;;;;10450682;28;20311;-70
2021/03/18 05:16:38;;;;;;;11.87;10.43;;;5.30;39.70;;;;;;10454410;28;20738;-70
2021/03/18 05:21:44;;;;;;;11.53;10.37;;;5.30;39.60;;;;;;10451658;28;20644;-70
2021/03/18 05:26:47;;;;;;;10.90;9.80;;;5.20;39.50;;;;;;10453266;28;20231;-70
2021/03/18 05:31:49;;;;;;;11.33;10.13;;;5.20;39.50;;;;;;10443692;28;20225;-70
2021/03/18 05:36:51;;;;;;;15.27;10.87;;;5.20;39.40;;;;;;10448346;28;20225;-70
2021/03/18 05:41:55;;;;;;;12.40;11.03;;;5.20;39.40;;;;;;10444833;28;20600;-70
2021/03/18 05:46:59;;;;;;;11.57;10.37;;;5.10;39.40;;;;;;10455465;28;20696;-70
2021/03/18 05:52:02;;;;;;;12.63;10.53;;;5.10;39.50;;;;;;10450087;28;20300;-70
2021/03/18 05:57:07;;;;;;;13.53;11.67;;;5.10;39.40;;;;;;10440971;28;20321;-69
2021/03/18 06:02:09;;;;;;;13.13;11.07;;;5.10;39.40;;;;;;10440496;28;20704;-69
2021/03/18 06:07:12;;;;;;;16.57;12.50;;;5.00;39.30;;;;;;10438069;28;20307;-69
2021/03/18 06:12:16;;;;;;;14.30;12.23;;;4.90;39.20;;;;;;10447265;28;20233;-69
2021/03/18 06:17:18;;;;;;;13.63;11.83;;;4.90;39.40;;;;;;10440495;28;20697;-69
2021/03/18 06:22:33;;;;;;;16.93;13.17;;;4.80;39.60;;;;;;10443478;28;20312;-70
2021/03/18 06:27:35;;;;;;;14.43;11.40;;;4.70;40.50;;;;;;10442515;28;20235;-69
2021/03/18 06:32:38;;;;;;;14.10;11.60;;;4.80;40.10;;;;;;10438903;28;20217;-67
2021/03/18 06:37:59;;;;;;;14.03;11.73;;;4.80;40.30;;;;;;10436285;28;20240;-67
2021/03/18 06:43:06;;;;;;;11.33;9.93;;;4.80;40.30;;;;;;10440534;28;20228;-67
2021/03/18 06:48:10;;;;;;;13.00;11.60;;;4.80;40.30;;;;;;10460421;22;20324;-77
2021/03/18 06:53:19;;;;;;;12.77;10.37;;;4.80;40.30;;;;;;10409789;28;20230;-77
2021/03/18 06:58:25;;;;;;;11.77;9.80;;;5.00;41.00;;;;;;10428532;28;20282;-75
2021/03/18 07:03:30;;;;;;;12.83;11.30;;;4.90;40.70;;;;;;10432544;28;20235;-76
2021/03/18 07:08:34;;;;;;;12.77;10.77;;;4.90;40.80;;;;;;10427617;28;20728;-76
2021/03/18 07:13:42;;;;;;;13.00;11.57;;;5.00;40.60;;;;;;10422078;28;20225;-76
2021/03/18 07:18:55;;;;;;;13.10;11.70;;;5.00;40.90;;;;;;10436710;28;20228;-76
2021/03/18 07:23:57;;;;;;;15.83;12.27;;;5.10;41.00;;;;;;10422810;28;20221;-76
2021/03/18 07:29:15;;;;;;;13.30;11.53;;;5.10;40.40;;;;;;10431841;28;20233;-76
2021/03/18 07:34:17;;;;;;;13.87;11.90;;;5.20;41.00;;;;;;10436398;28;20656;-76
2021/03/18 07:39:22;;;;;;;16.33;12.07;;;5.20;40.50;;;;;;10433006;28;20228;-76
2021/03/18 07:44:26;;;;;;;13.77;12.20;;;5.20;40.50;;;;;;10433664;28;23335;-76
2021/03/18 07:49:31;;;;;;;14.20;12.30;;;5.20;40.80;;;;;;10422634;28;20226;-76
2021/03/18 07:54:36;;;;;;;13.37;11.97;;;5.20;40.80;;;;;;10438531;28;20221;-76
2021/03/18 07:59:39;;;;;;;16.37;12.73;;;5.30;40.80;;;;;;10435958;28;20240;-76
2021/03/18 08:04:43;;;;;;;13.00;11.67;;;5.20;40.80;;;;;;10435087;28;20225;-76
2021/03/18 08:10:04;;;;;;;13.47;12.00;;;5.30;41.00;;;;;;10407286;28;20326;-76
2021/03/18 08:15:29;;;;;;;14.20;12.60;;;5.40;41.10;;;;;;10425872;28;20230;-77
2021/03/18 08:21:04;;;;;;;12.40;11.13;;;5.40;41.70;;;;;;10423420;28;20708;-77
2021/03/18 08:26:10;;;;;;;13.17;11.80;;;5.50;41.90;;;;;;10424676;28;20271;-76
2021/03/18 08:31:15;;;;;;;12.87;11.43;;;5.60;41.40;;;;;;10432039;28;20218;-77
2021/03/18 08:36:24;;;;;;;13.50;11.83;;;5.70;41.40;;;;;;10439155;28;20628;-77
2021/03/18 08:41:33;;;;;;;13.10;11.73;;;5.90;41.90;;;;;;10421627;28;20228;-77
2021/03/18 08:46:41;;;;;;;13.23;11.83;;;6.00;41.60;;;;;;10420580;28;20347;-80
2021/03/18 08:51:47;;;;;;;12.90;10.60;;;6.30;41.20;;;;;;10425518;28;20236;-78
2021/03/18 08:56:49;;;;;;;12.47;11.17;;;6.40;41.50;;;;;;10413856;28;20225;-77
2021/03/18 09:02:02;;;;;;;13.27;11.67;;;6.60;41.50;;;;;;10409837;28;20251;-75
2021/03/18 09:07:05;;;;;;;14.47;10.97;;;6.80;41.30;;;;;;10416372;28;20856;-76
2021/03/18 09:12:09;;;;;;;11.60;10.53;;;7.00;41.10;;;;;;10409574;28;21014;-74
2021/03/18 09:17:14;;;;;;;12.53;11.23;;;7.20;41.00;;;;;;10405707;28;20310;-75
2021/03/18 09:22:25;;;;;;;11.57;10.37;;;7.30;40.90;;;;;;10423699;28;20321;-78
2021/03/18 09:27:35;;;;;;;10.70;9.70;;;7.50;40.90;;;;;;10437159;28;20424;-77
2021/03/18 09:32:39;;;;;;;11.03;9.93;;;7.60;40.40;;;;;;10455710;28;20311;-79
2021/03/18 09:37:44;;;;;;;10.93;9.93;;;7.80;40.60;;;;;;10452496;28;20218;-75
2021/03/18 09:42:47;;;;;;;10.50;9.13;;;7.90;39.60;;;;;;10428510;28;20233;-74
2021/03/18 09:47:52;;;;;;;8.10;7.40;;;8.00;39.70;;;;;;10437169;28;20307;-77
2021/03/18 09:53:09;;;;;;;8.87;7.97;;;8.10;39.30;;;;;;10427419;28;20304;-77
2021/03/18 09:58:14;;;;;;;7.77;7.07;;;8.30;40.20;;;;;;10429188;28;20307;-75
2021/03/18 10:03:17;;;;;;;8.17;7.37;;;8.50;39.70;;;;;;10397311;28;20264;-79
2021/03/18 10:08:23;;;;;;;7.70;7.00;;;8.70;39.70;;;;;;10423780;28;20236;-75
2021/03/18 10:13:25;;;;;;;8.33;7.10;;;8.80;36.60;;;;;;10419482;28;21301;-74
2021/03/18 10:18:29;;;;;;;7.73;6.93;;;8.80;37.10;;;;;;10435368;28;20235;-76
2021/03/18 10:23:32;;;;;;;7.13;6.53;;;8.70;37.00;;;;;;10424347;28;20245;-76
2021/03/18 10:28:35;;;;;;;7.93;7.13;;;8.50;37.40;;;;;;10417351;28;20232;-77
2021/03/18 10:33:38;;;;;;;8.20;7.13;;;8.50;36.50;;;;;;10400894;28;20225;-76
2021/03/18 10:38:42;;;;;;;7.60;6.90;;;8.40;36.60;;;;;;10423443;28;20239;-76
2021/03/18 10:43:45;;;;;;;8.93;7.37;;;8.30;37.10;;;;;;10420500;28;20229;-75
2021/03/18 10:48:50;;;;;;;8.47;7.57;;;8.30;37.00;;;;;;10454270;28;20456;-77
2021/03/18 10:53:53;;;;;;;8.47;7.50;;;8.20;36.70;;;;;;10443295;28;20637;-74
2021/03/18 10:58:56;;;;;;;8.20;7.33;;;8.20;36.80;;;;;;10430654;28;20249;-75
2021/03/18 11:04:04;;;;;;;7.60;6.80;;;8.20;37.30;;;;;;10435987;28;20736;-74
2021/03/18 11:09:12;;;;;;;7.27;6.57;;;8.20;36.70;;;;;;10450976;28;20229;-75
2021/03/18 11:14:15;;;;;;;7.70;7.00;;;8.20;36.50;;;;;;10447222;28;20265;-76
2021/03/18 11:19:21;;;;;;;6.10;5.47;;;8.30;38.20;;;;;;10431739;28;20225;-76
2021/03/18 11:24:27;;;;;;;5.63;4.70;;;8.50;34.60;;;;;;10442582;28;20226;-75
2021/03/18 11:29:32;;;;;;;5.47;4.97;;;8.60;35.70;;;;;;10422268;28;20232;-75
2021/03/18 11:34:37;;;;;;;6.53;5.97;;;8.70;36.40;;;;;;10421129;28;20228;-77
2021/03/18 11:39:41;;;;;;;6.00;5.50;;;8.80;36.70;;;;;;10415121;28;20232;-76
2021/03/18 11:44:43;;;;;;;5.70;5.20;;;8.90;35.60;;;;;;10427208;28;20743;-77
2021/03/18 11:49:47;;;;;;;5.97;5.47;;;8.90;35.40;;;;;;10423804;28;20226;-76
2021/03/18 11:54:49;;;;;;;5.80;5.30;;;8.80;34.80;;;;;;10425728;28;20225;-77
2021/03/18 11:59:52;;;;;;;6.10;5.50;;;8.70;35.70;;;;;;10418171;28;20225;-77
2021/03/18 12:04:55;;;;;;;5.93;5.33;;;8.60;35.80;;;;;;10425003;28;20313;-77
2021/03/18 12:09:57;;;;;;;6.20;5.70;;;8.60;35.80;;;;;;10422057;28;20252;-77
2021/03/18 12:14:59;;;;;;;6.13;5.57;;;8.60;35.40;;;;;;10433154;28;20244;-78
2021/03/18 12:20:04;;;;;;;6.23;5.27;;;8.60;35.30;;;;;;10423129;28;20232;-77
2021/03/18 12:25:08;;;;;;;6.33;5.70;;;8.60;34.80;;;;;;10434174;28;20336;-77
2021/03/18 12:30:14;;;;;;;5.87;5.13;;;8.60;36.10;;;;;;10432227;28;20233;-76
2021/03/18 12:35:18;;;;;;;5.23;4.73;;;8.60;36.40;;;;;;10417529;28;20270;-77
2021/03/18 12:40:22;;;;;;;4.97;4.43;;;8.60;36.40;;;;;;10408165;28;20237;-77
2021/03/18 12:45:25;;;;;;;4.63;4.23;;;8.50;36.60;;;;;;10448610;22;20303;-69
2021/03/18 12:50:28;;;;;;;3.60;3.30;;;8.40;36.90;;;;;;10449049;28;20231;-69
2021/03/18 12:55:31;;;;;;;3.60;3.30;;;8.40;37.00;;;;;;10448740;28;20235;-69
2021/03/18 13:00:36;;;;;;;3.57;3.27;;;8.30;36.70;;;;;;10451932;28;20308;-69
2021/03/18 13:05:40;;;;;;;4.97;4.47;;;8.40;36.70;;;;;;10456150;28;20221;-70
2021/03/18 13:10:43;;;;;;;4.83;4.33;;;8.30;36.70;;;;;;10454331;28;20224;-69
2021/03/18 13:15:45;;;;;;;4.27;3.97;;;8.30;36.70;;;;;;10456217;28;20229;-70
2021/03/18 13:20:48;;;;;;;5.37;4.17;;;8.30;36.50;;;;;;10456364;28;20221;-69
2021/03/18 13:25:51;;;;;;;5.33;4.83;;;8.30;36.60;;;;;;10452746;28;20231;-70
2021/03/18 13:30:54;;;;;;;5.33;4.83;;;8.30;36.60;;;;;;10446313;28;20252;-70
2021/03/18 13:35:57;;;;;;;4.53;4.13;;;8.30;36.70;;;;;;10446169;28;20239;-70
2021/03/18 13:40:59;;;;;;;4.33;3.93;;;8.30;36.20;;;;;;10446570;28;20309;-70
2021/03/18 13:46:04;;;;;;;5.30;4.87;;;8.30;36.20;;;;;;10449372;28;20242;-69
2021/03/18 13:51:08;;;;;;;5.37;4.87;;;8.30;36.00;;;;;;10450962;28;20235;-70
2021/03/18 13:56:10;;;;;;;5.97;4.93;;;8.40;35.90;;;;;;10450752;28;20255;-71
2021/03/18 14:01:13;;;;;;;8.20;5.70;;;8.50;35.90;;;;;;10446076;28;20608;-71
2021/03/18 14:06:16;;;;;;;5.40;4.90;;;8.50;35.40;;;;;;10447157;28;20233;-70
2021/03/18 14:11:19;;;;;;;5.73;5.17;;;8.50;34.80;;;;;;10449963;28;20228;-72
2021/03/18 14:16:21;;;;;;;5.40;4.83;;;8.50;35.00;;;;;;10451960;28;20236;-72
2021/03/18 14:21:25;;;;;;;4.63;4.23;;;8.50;34.90;;;;;;10443886;28;20644;-71
2021/03/18 14:26:29;;;;;;;5.00;4.40;;;8.60;33.30;;;;;;10444926;28;20313;-70
2021/03/18 14:31:34;;;;;;;4.20;3.80;;;8.70;33.80;;;;;;10439724;28;20247;-69
2021/03/18 14:36:37;;;;;;;3.87;3.47;;;8.70;34.60;;;;;;10446382;28;20235;-69
2021/03/18 14:41:39;;;;;;;3.30;3.00;;;8.80;33.90;;;;;;10445535;28;20243;-70
2021/03/18 14:46:42;;;;;;;4.27;3.40;;;8.90;34.20;;;;;;10448881;28;20756;-71
2021/03/18 14:51:45;;;;;;;4.57;4.17;;;8.90;33.90;;;;;;10443996;28;20229;-70
2021/03/18 14:56:47;;;;;;;5.30;4.80;;;9.00;34.40;;;;;;10448932;28;20252;-70
2021/03/18 15:02:10;;;;;;;5.63;4.73;;;9.00;35.20;;;;;;10443097;28;20231;-69
2021/03/18 15:07:13;;;;;;;4.50;4.10;;;9.00;35.50;;;;;;10443812;28;20320;-68
2021/03/18 15:12:15;;;;;;;4.23;3.83;;;9.00;35.50;;;;;;10440665;28;20243;-70
2021/03/18 15:17:18;;;;;;;3.87;3.33;;;9.00;35.50;;;;;;10447865;28;20323;-70
2021/03/18 15:22:21;;;;;;;4.03;3.70;;;9.00;35.30;;;;;;10445111;28;20670;-70
2021/03/18 15:27:23;;;;;;;3.87;3.57;;;9.00;35.30;;;;;;10444563;28;20242;-69
2021/03/18 15:32:25;;;;;;;3.60;3.30;;;9.10;35.20;;;;;;10448317;28;20268;-69
2021/03/18 15:37:29;;;;;;;5.60;5.10;;;9.00;35.30;;;;;;10433751;28;20283;-69
2021/03/18 15:42:31;;;;;;;4.13;3.77;;;9.00;35.30;;;;;;10439057;28;20233;-69
2021/03/18 15:47:33;;;;;;;4.10;3.80;;;8.90;35.50;;;;;;10432650;28;20235;-69
2021/03/18 15:52:38;;;;;;;4.13;3.80;;;8.90;35.30;;;;;;10437233;28;20316;-69
2021/03/18 15:57:40;;;;;;;4.70;4.30;;;8.90;34.90;;;;;;10434346;28;20658;-69
2021/03/18 16:02:44;;;;;;;4.50;4.10;;;8.80;34.70;;;;;;10437414;28;20259;-69
2021/03/18 16:07:56;;;;;;;4.20;3.90;;;8.70;35.20;;;;;;10436637;28;20278;-68
2021/03/18 16:13:00;;;;;;;4.00;3.70;;;8.60;35.10;;;;;;10440596;28;20580;-69
2021/03/18 16:18:07;;;;;;;4.50;4.10;;;8.50;35.30;;;;;;10440111;28;20235;-69
2021/03/18 16:23:13;;;;;;;5.37;3.97;;;8.50;35.10;;;;;;10437484;28;20275;-69
2021/03/18 16:28:17;;;;;;;3.83;3.53;;;8.50;35.20;;;;;;10441123;28;20229;-70
2021/03/18 16:33:20;;;;;;;4.40;4.00;;;8.50;35.40;;;;;;10438378;28;20229;-70
2021/03/18 16:38:25;;;;;;;5.70;4.50;;;8.50;36.20;;;;;;10434707;28;20233;-70
2021/03/18 16:43:39;;;;;;;4.73;4.23;;;8.50;35.20;;;;;;10437388;28;20231;-69
2021/03/18 16:48:42;;;;;;;3.73;3.43;;;8.40;35.50;;;;;;10437362;28;20313;-70
2021/03/18 16:53:45;;;;;;;4.00;3.47;;;8.40;35.30;;;;;;10433861;28;20232;-71
2021/03/18 16:58:48;;;;;;;4.07;3.47;;;8.40;35.40;;;;;;10442755;28;20647;-70
2021/03/18 17:03:50;;;;;;;3.63;3.33;;;8.30;35.50;;;;;;10448701;28;20232;-70
2021/03/18 17:08:53;;;;;;;3.80;3.50;;;8.20;35.60;;;;;;10448128;28;20270;-70
2021/03/18 17:13:55;;;;;;;4.23;3.70;;;8.20;35.60;;;;;;10442024;28;20328;-69
2021/03/18 17:19:04;;;;;;;3.90;3.50;;;8.20;35.80;;;;;;10438886;28;20229;-71
2021/03/18 17:24:08;;;;;;;5.07;3.80;;;8.10;35.60;;;;;;10424456;28;20320;-70
2021/03/18 17:29:11;;;;;;;4.93;3.67;;;8.10;35.80;;;;;;10425134;28;20236;-69
2021/03/18 17:34:13;;;;;;;4.73;4.23;;;8.10;35.80;;;;;;10435210;28;20730;-70
2021/03/18 17:39:17;;;;;;;4.70;4.30;;;8.00;35.80;;;;;;10426384;28;20239;-69
2021/03/18 17:44:19;;;;;;;4.70;4.10;;;8.00;35.40;;;;;;10435857;28;20231;-69
2021/03/18 17:49:22;;;;;;;3.70;3.40;;;7.90;35.60;;;;;;10443617;28;20250;-69
2021/03/18 17:54:25;;;;;;;3.63;3.33;;;7.90;35.60;;;;;;10451437;28;20266;-69
2021/03/18 17:59:27;;;;;;;4.63;3.50;;;7.80;35.50;;;;;;10440814;28;20225;-69
2021/03/18 18:04:29;;;;;;;3.70;3.30;;;7.70;35.80;;;;;;10443803;28;20232;-69
2021/03/18 18:09:32;;;;;;;3.83;3.53;;;7.60;35.80;;;;;;10425009;28;20217;-68
2021/03/18 18:14:35;;;;;;;3.97;3.57;;;7.50;35.80;;;;;;10440729;28;20228;-69
2021/03/18 18:19:37;;;;;;;4.03;3.70;;;7.30;35.80;;;;;;10440505;28;20581;-69
2021/03/18 18:24:40;;;;;;;4.00;3.60;;;7.20;36.00;;;;;;10443278;28;20229;-69
2021/03/18 18:29:43;;;;;;;4.20;3.90;;;7.10;36.10;;;;;;10447016;28;20224;-69
2021/03/18 18:34:45;;;;;;;4.13;3.73;;;7.00;36.20;;;;;;10439228;28;20244;-68
2021/03/18 18:39:48;;;;;;;3.83;3.50;;;6.90;36.20;;;;;;10442232;28;20599;-68
2021/03/18 18:44:50;;;;;;;3.87;3.47;;;6.80;36.40;;;;;;10445190;28;20230;-68
2021/03/18 18:49:52;;;;;;;4.40;3.70;;;6.80;36.50;;;;;;10448712;22;20229;-71
2021/03/18 18:54:55;;;;;;;3.93;3.47;;;6.70;36.60;;;;;;10442191;28;20225;-72
2021/03/18 18:59:58;;;;;;;6.93;4.80;;;6.80;36.70;;;;;;10440325;28;20239;-72
2021/03/18 19:05:00;;;;;;;6.60;4.87;;;6.80;36.70;;;;;;10427282;28;20313;-72
2021/03/18 19:10:05;;;;;;;5.43;4.80;;;6.80;36.80;;;;;;10445663;28;20229;-72
2021/03/18 19:15:09;;;;;;;4.67;4.27;;;6.80;36.70;;;;;;10432498;28;20232;-72
2021/03/18 19:20:14;;;;;;;6.13;5.53;;;6.80;36.80;;;;;;10446804;28;20236;-72
2021/03/18 19:25:17;;;;;;;6.03;5.43;;;6.80;36.70;;;;;;10444625;28;20631;-73
2021/03/18 19:30:22;;;;;;;7.10;6.40;;;6.70;36.60;;;;;;10450747;28;20228;-73
2021/03/18 19:35:25;;;;;;;6.83;6.13;;;6.70;36.80;;;;;;10448157;28;20319;-73
2021/03/18 19:40:30;;;;;;;7.03;6.43;;;6.60;36.70;;;;;;10447085;28;20232;-73
2021/03/18 19:45:33;;;;;;;6.20;5.70;;;6.50;37.00;;;;;;10435355;28;20228;-73
2021/03/18 19:50:36;;;;;;;7.03;6.33;;;6.60;37.00;;;;;;10427462;28;20230;-75
2021/03/18 19:55:39;;;;;;;6.90;6.30;;;6.50;36.90;;;;;;10438663;28;20724;-73
2021/03/18 20:00:45;;;;;;;6.27;5.77;;;6.50;37.20;;;;;;10434275;28;20256;-73
2021/03/18 20:05:48;;;;;;;6.30;5.73;;;6.50;37.20;;;;;;10425305;28;20237;-73
2021/03/18 20:10:52;;;;;;;6.73;6.03;;;6.50;37.20;;;;;;10435729;28;20239;-74
2021/03/18 20:15:54;;;;;;;6.53;5.60;;;6.40;37.10;;;;;;10443034;28;20221;-74
2021/03/18 20:21:22;;;;;;;5.60;5.10;;;6.40;37.20;;;;;;10453540;28;20221;-73
2021/03/18 20:26:25;;;;;;;6.07;5.47;;;6.30;37.40;;;;;;10444360;28;20770;-73
2021/03/18 20:31:28;;;;;;;6.47;5.87;;;6.20;37.60;;;;;;10443345;28;20229;-74
2021/03/18 20:36:31;;;;;;;6.37;5.77;;;6.20;37.50;;;;;;10439275;28;20342;-73
2021/03/18 20:41:35;;;;;;;6.17;5.57;;;6.20;37.70;;;;;;10443708;28;20225;-76
2021/03/18 20:46:37;;;;;;;6.70;6.00;;;6.10;37.60;;;;;;10439500;28;20237;-73
2021/03/18 20:51:40;;;;;;;5.97;5.47;;;6.10;37.70;;;;;;10436612;28;20232;-73
2021/03/18 20:56:43;;;;;;;6.33;5.73;;;6.10;37.70;;;;;;10429621;28;20247;-74
2021/03/18 21:01:45;;;;;;;5.67;5.17;;;6.00;37.60;;;;;;10433247;28;20256;-74
2021/03/18 21:07:02;;;;;;;7.67;6.97;;;6.10;37.70;;;;;;10527231;27;20560;-73
2021/03/18 21:12:09;;;;;;;8.07;5.93;;;6.00;37.60;;;;;;10508338;28;20323;-73
2021/03/18 21:17:15;;;;;;;7.37;6.73;;;6.00;37.60;;;;;;10518742;28;20684;-77
2021/03/18 21:22:18;;;;;;;7.87;7.07;;;6.00;37.60;;;;;;10510183;28;20721;-74
2021/03/18 21:27:22;;;;;;;7.60;6.80;;;6.00;37.60;;;;;;10516875;28;20246;-74
2021/03/18 21:32:27;;;;;;;10.13;8.20;;;6.00;37.60;;;;;;10507483;28;20238;-75
2021/03/18 21:37:31;;;;;;;8.90;8.07;;;6.10;37.70;;;;;;10510676;28;20242;-75
2021/03/18 21:42:33;;;;;;;10.43;8.63;;;5.90;37.50;;;;;;10517226;28;20247;-76
2021/03/18 21:47:36;;;;;;;11.40;10.07;;;5.80;37.50;;;;;;10519490;28;20215;-75
2021/03/18 21:52:41;;;;;;;9.93;8.23;;;5.80;37.60;;;;;;10514310;28;20274;-74
2021/03/18 21:57:44;;;;;;;14.03;11.43;;;5.80;37.80;;;;;;10502485;28;20270;-74
2021/03/18 22:02:47;;;;;;;15.77;12.63;;;5.80;37.80;;;;;;10504260;28;20234;-76
2021/03/18 22:07:50;;;;;;;11.20;8.97;;;5.80;37.90;;;;;;10517310;28;20228;-74
2021/03/18 22:12:53;;;;;;;9.93;8.73;;;5.70;38.00;;;;;;10510913;28;20226;-75
2021/03/18 22:17:55;;;;;;;10.37;8.83;;;5.70;38.00;;;;;;10487266;28;20252;-75
2021/03/18 22:22:58;;;;;;;8.30;7.50;;;5.60;38.10;;;;;;10478292;28;20233;-74
2021/03/18 22:28:00;;;;;;;10.30;8.67;;;5.60;38.20;;;;;;10473166;28;20846;-75
2021/03/18 22:33:03;;;;;;;10.93;9.60;;;5.50;38.20;;;;;;10464385;28;20225;-76
2021/03/18 22:38:07;;;;;;;14.80;10.30;;;5.50;38.30;;;;;;10432330;28;20716;-75
2021/03/18 22:43:09;;;;;;;12.53;10.03;;;5.50;38.50;;;;;;10439884;28;20325;-75
2021/03/18 22:48:11;;;;;;;14.00;11.30;;;5.50;38.40;;;;;;10446430;28;20225;-74
2021/03/18 22:53:15;;;;;;;17.33;12.87;;;5.60;38.50;;;;;;10448352;28;20275;-75
2021/03/18 22:58:17;;;;;;;9.33;8.43;;;5.50;38.50;;;;;;10451108;28;20232;-74
2021/03/18 23:03:19;;;;;;;9.50;8.43;;;5.50;38.40;;;;;;10444453;28;20630;-74
2021/03/18 23:08:22;;;;;;;9.47;8.57;;;5.50;38.40;;;;;;10447303;28;20237;-74
2021/03/18 23:13:24;;;;;;;8.83;7.93;;;5.40;38.60;;;;;;10438192;28;20315;-74
2021/03/18 23:18:37;;;;;;;11.10;10.00;;;5.30;38.60;;;;;;10440679;28;20249;-75
2021/03/18 23:23:40;;;;;;;8.90;8.00;;;5.30;38.70;;;;;;10442535;28;20240;-74
2021/03/18 23:28:42;;;;;;;9.40;8.17;;;5.30;38.70;;;;;;10438958;28;20233;-75
2021/03/18 23:33:44;;;;;;;8.73;7.83;;;5.40;38.90;;;;;;10444329;28;20221;-74
2021/03/18 23:38:47;;;;;;;8.03;7.23;;;5.40;38.80;;;;;;10451402;28;20228;-74
2021/03/18 23:43:50;;;;;;;7.07;6.30;;;5.50;38.80;;;;;;10449797;28;20713;-74
2021/03/18 23:48:52;;;;;;;7.53;6.90;;;5.50;38.70;;;;;;10454439;28;20221;-74
2021/03/18 23:53:55;;;;;;;7.20;6.60;;;5.50;38.80;;;;;;10460278;28;20312;-74
2021/03/18 23:58:58;;;;;;;8.03;6.60;;;5.50;38.70;;;;;;10431036;28;20319;-74
